Time;durP1;ratioP1;P1;durP2;ratioP2;P2;SDS_P1;SDS_P2;PMS_P1;PMS_P2;Temp;Humidity;BMP_temperature;BMP_pressure;BME280_temperature;BME280_humidity;BME280_pressure;Samples;Min_cycle;Max_cycle;Signal;HPM_P1;HPM_P2
2024/02/23 00:00:47;;;;;;;29.88;20.60;;;;;;;;;;5028752;28;20163;-48
2024/02/23 00:03:13;;;;;;;31.80;21.53;;;;;;;;;;5020763;28;20045;-51
2024/02/23 00:05:40;;;;;;;29.75;19.27;;;;;;;;;;5011487;28;20492;-48
2024/02/23 00:08:08;;;;;;;29.63;20.50;;;;;;;;;;5012043;28;20026;-49
2024/02/23 00:10:35;;;;;;;29.40;18.70;;;;;;;;;;5016220;28;20029;-48
2024/02/23 00:13:01;;;;;;;27.83;18.95;;;;;;;;;;5006527;28;20076;-49
2024/02/23 00:15:28;;;;;;;26.70;19.38;;;;;;;;;;5011360;28;20463;-49
2024/02/23 00:17:54;;;;;;;28.10;20.10;;;;;;;;;;5011608;28;20101;-49
2024/02/23 00:20:21;;;;;;;28.95;20.55;;;;;;;;;;5011600;28;20488;-48
2024/02/23 00:22:47;;;;;;;26.23;19.07;;;;;;;;;;5017642;28;20120;-49
2024/02/23 00:25:14;;;;;;;29.47;20.17;;;;;;;;;;5034819;28;20083;-49
2024/02/23 00:27:41;;;;;;;30.25;17.33;;;;;;;;;;5035243;28;20629;-49
2024/02/23 00:30:08;;;;;;;27.33;19.35;;;;;;;;;;5033032;28;20120;-49
2024/02/23 00:32:34;;;;;;;27.55;17.08;;;;;;;;;;5018057;28;20025;-49
2024/02/23 00:35:00;;;;;;;29.95;18.60;;;;;;;;;;5035145;28;20108;-48
2024/02/23 00:37:26;;;;;;;24.70;16.98;;;;;;;;;;5034854;28;20033;-48
2024/02/23 00:39:52;;;;;;;24.92;17.13;;;;;;;;;;5017214;28;20080;-49
2024/02/23 00:42:20;;;;;;;28.87;18.43;;;;;;;;;;5023293;28;20430;-49
2024/02/23 00:44:47;;;;;;;25.52;16.90;;;;;;;;;;5014341;28;20389;-49
2024/02/23 00:47:13;;;;;;;22.88;15.98;;;;;;;;;;5017139;28;20109;-49
2024/02/23 00:49:39;;;;;;;28.70;18.20;;;;;;;;;;4995588;28;20057;-49
2024/02/23 00:52:05;;;;;;;27.25;15.38;;;;;;;;;;4995348;28;20546;-48
2024/02/23 00:54:32;;;;;;;22.43;15.63;;;;;;;;;;5028609;28;20056;-50
2024/02/23 00:56:58;;;;;;;22.53;15.33;;;;;;;;;;5033398;28;20523;-49
2024/02/23 00:59:24;;;;;;;22.25;15.73;;;;;;;;;;5034745;28;20026;-50
2024/02/23 01:01:50;;;;;;;28.43;16.07;;;;;;;;;;5023839;28;20028;-48
2024/02/23 01:04:17;;;;;;;23.00;16.07;;;;;;;;;;5011858;28;20147;-49
2024/02/23 01:06:43;;;;;;;29.92;16.35;;;;;;;;;;5025205;28;20022;-47
2024/02/23 01:09:09;;;;;;;22.83;15.82;;;;;;;;;;5014723;28;20029;-48
2024/02/23 01:11:35;;;;;;;22.60;15.40;;;;;;;;;;5022078;28;20065;-48
2024/02/23 01:14:02;;;;;;;23.45;14.85;;;;;;;;;;5034045;28;20036;-48
2024/02/23 01:16:28;;;;;;;25.73;15.23;;;;;;;;;;5022511;28;20036;-50
2024/02/23 01:18:54;;;;;;;20.23;13.53;;;;;;;;;;5016090;28;20493;-49
2024/02/23 01:21:20;;;;;;;19.00;14.07;;;;;;;;;;5026119;28;20025;-49
2024/02/23 01:23:46;;;;;;;20.00;13.95;;;;;;;;;;5013125;28;20037;-49
2024/02/23 01:26:13;;;;;;;22.63;14.57;;;;;;;;;;5012815;28;20109;-49
2024/02/23 01:28:39;;;;;;;19.67;13.65;;;;;;;;;;5012980;28;20080;-49
2024/02/23 01:31:07;;;;;;;18.50;14.13;;;;;;;;;;5018262;28;20100;-49
2024/02/23 01:33:35;;;;;;;22.38;14.07;;;;;;;;;;5029954;28;20068;-49
2024/02/23 01:36:01;;;;;;;17.58;13.88;;;;;;;;;;5031948;28;20519;-51
2024/02/23 01:38:32;;;;;;;21.38;13.93;;;;;;;;;;5033572;28;20077;-49
2024/02/23 01:40:58;;;;;;;19.30;12.55;;;;;;;;;;5032399;28;20030;-49
2024/02/23 01:43:25;;;;;;;16.00;13.17;;;;;;;;;;5014004;28;20037;-50
2024/02/23 01:45:51;;;;;;;16.23;13.05;;;;;;;;;;5019200;28;20287;-49
2024/02/23 01:48:17;;;;;;;16.60;12.73;;;;;;;;;;5014875;28;20049;-48
2024/02/23 01:50:44;;;;;;;18.75;11.95;;;;;;;;;;5014135;28;20033;-50
2024/02/23 01:53:12;;;;;;;18.05;10.15;;;;;;;;;;5015914;28;20030;-51
2024/02/23 01:55:41;;;;;;;15.65;11.73;;;;;;;;;;5014742;28;20038;-48
2024/02/23 01:58:08;;;;;;;20.80;11.73;;;;;;;;;;5012388;28;20134;-49
2024/02/23 02:00:35;;;;;;;21.17;12.10;;;;;;;;;;5017649;28;20107;-49
2024/02/23 02:03:01;;;;;;;17.95;11.70;;;;;;;;;;5021477;28;20076;-49
2024/02/23 02:05:28;;;;;;;20.27;13.03;;;;;;;;;;5014463;28;20042;-49
2024/02/23 02:07:58;;;;;;;16.60;12.77;;;;;;;;;;5013724;28;20109;-50
2024/02/23 02:10:26;;;;;;;14.48;11.40;;;;;;;;;;5013456;28;20052;-51
2024/02/23 02:12:52;;;;;;;14.25;10.88;;;;;;;;;;5023775;28;20036;-48
2024/02/23 02:15:21;;;;;;;14.70;9.43;;;;;;;;;;5029204;28;20108;-48
2024/02/23 02:17:47;;;;;;;15.15;10.18;;;;;;;;;;5012029;28;20518;-49
2024/02/23 02:20:14;;;;;;;18.40;9.05;;;;;;;;;;5013304;28;20041;-49
2024/02/23 02:22:40;;;;;;;15.90;9.23;;;;;;;;;;5021710;28;20029;-50
2024/02/23 02:25:07;;;;;;;13.85;10.43;;;;;;;;;;5021967;28;20507;-50
2024/02/23 02:27:33;;;;;;;15.07;9.10;;;;;;;;;;5015702;28;20037;-49
2024/02/23 02:29:59;;;;;;;16.13;9.38;;;;;;;;;;5031404;28;20025;-49
2024/02/23 02:32:26;;;;;;;15.73;9.95;;;;;;;;;;5019558;28;20093;-49
2024/02/23 02:34:52;;;;;;;15.30;9.25;;;;;;;;;;5030974;28;20025;-48
2024/02/23 02:37:18;;;;;;;12.52;9.15;;;;;;;;;;5032366;28;20079;-49
2024/02/23 02:39:44;;;;;;;13.73;9.00;;;;;;;;;;5023838;28;20088;-49
2024/02/23 02:42:10;;;;;;;9.88;8.52;;;;;;;;;;5015922;28;20033;-49
2024/02/23 02:44:37;;;;;;;14.20;8.53;;;;;;;;;;5032049;28;20030;-50
2024/02/23 02:47:03;;;;;;;10.70;8.48;;;;;;;;;;5024757;28;20022;-48
2024/02/23 02:49:29;;;;;;;13.63;8.90;;;;;;;;;;5032552;28;20088;-50
2024/02/23 02:51:55;;;;;;;12.35;8.88;;;;;;;;;;5022264;28;20427;-49
2024/02/23 02:54:22;;;;;;;10.73;8.38;;;;;;;;;;5031766;28;20446;-49
2024/02/23 02:56:50;;;;;;;8.88;7.80;;;;;;;;;;5002499;28;20041;-48
2024/02/23 02:59:18;;;;;;;10.15;8.48;;;;;;;;;;5011626;28;20026;-48
2024/02/23 03:01:45;;;;;;;11.88;7.63;;;;;;;;;;5025949;28;20029;-49
2024/02/23 03:04:11;;;;;;;10.73;7.85;;;;;;;;;;5010594;28;20041;-49
2024/02/23 03:06:38;;;;;;;10.13;7.55;;;;;;;;;;5030183;28;20056;-49
2024/02/23 03:09:04;;;;;;;10.88;7.22;;;;;;;;;;5031113;28;20417;-52
2024/02/23 03:11:31;;;;;;;9.18;6.40;;;;;;;;;;5031186;28;20033;-49
2024/02/23 03:13:57;;;;;;;10.73;7.38;;;;;;;;;;5022309;28;20025;-49
2024/02/23 03:16:25;;;;;;;10.80;6.97;;;;;;;;;;5020977;28;20038;-49
2024/02/23 03:18:54;;;;;;;11.85;7.28;;;;;;;;;;5013428;28;20037;-51
2024/02/23 03:21:20;;;;;;;10.02;7.03;;;;;;;;;;5012428;28;20034;-48
2024/02/23 03:23:46;;;;;;;11.37;6.73;;;;;;;;;;5003078;28;20115;-49
2024/02/23 03:26:13;;;;;;;8.13;6.93;;;;;;;;;;5013731;28;20084;-49
2024/02/23 03:28:39;;;;;;;8.50;6.90;;;;;;;;;;5026439;28;20049;-50
2024/02/23 03:31:06;;;;;;;8.25;6.85;;;;;;;;;;5020350;28;20059;-47
2024/02/23 03:33:32;;;;;;;10.00;7.05;;;;;;;;;;5021745;28;20025;-49
2024/02/23 03:35:58;;;;;;;13.40;7.82;;;;;;;;;;5011725;28;20029;-48
2024/02/23 03:38:25;;;;;;;11.37;7.70;;;;;;;;;;5013222;28;20117;-49
2024/02/23 03:40:51;;;;;;;10.25;7.22;;;;;;;;;;5012054;28;20022;-49
2024/02/23 03:43:17;;;;;;;9.27;7.35;;;;;;;;;;5016112;28;20029;-50
2024/02/23 03:45:43;;;;;;;9.70;6.68;;;;;;;;;;5024725;28;20484;-49
2024/02/23 03:48:09;;;;;;;7.63;5.93;;;;;;;;;;5012010;28;20022;-50
2024/02/23 03:50:36;;;;;;;8.50;7.60;;;;;;;;;;5019352;28;20014;-49
2024/02/23 03:53:03;;;;;;;10.52;6.88;;;;;;;;;;5022022;28;20034;-49
2024/02/23 03:55:29;;;;;;;12.98;7.68;;;;;;;;;;5018894;28;20026;-50
2024/02/23 03:57:55;;;;;;;9.32;7.35;;;;;;;;;;5030030;28;20419;-50
2024/02/23 04:00:23;;;;;;;11.35;8.05;;;;;;;;;;5006813;28;20406;-50
2024/02/23 04:02:49;;;;;;;12.23;7.28;;;;;;;;;;5011670;28;20067;-49
2024/02/23 04:05:15;;;;;;;8.07;6.45;;;;;;;;;;5014605;28;20141;-49
2024/02/23 04:07:42;;;;;;;12.37;8.43;;;;;;;;;;5030161;28;20037;-49
2024/02/23 04:10:08;;;;;;;13.98;7.50;;;;;;;;;;5019427;28;20026;-49
2024/02/23 04:12:34;;;;;;;11.52;8.52;;;;;;;;;;5010406;28;20046;-49
2024/02/23 04:15:00;;;;;;;13.15;8.25;;;;;;;;;;5012523;28;20053;-51
2024/02/23 04:17:27;;;;;;;12.35;7.97;;;;;;;;;;5013644;28;20113;-50
2024/02/23 04:19:53;;;;;;;12.30;8.43;;;;;;;;;;5011754;28;20030;-48
2024/02/23 04:22:19;;;;;;;17.10;9.38;;;;;;;;;;5024451;28;20036;-49
2024/02/23 04:24:45;;;;;;;12.03;9.83;;;;;;;;;;5030952;28;20052;-48
2024/02/23 04:27:12;;;;;;;14.63;9.27;;;;;;;;;;5016464;28;20022;-49
2024/02/23 04:29:38;;;;;;;14.00;9.73;;;;;;;;;;5029460;28;20022;-49
2024/02/23 04:32:04;;;;;;;13.18;8.43;;;;;;;;;;5026946;28;20279;-49
2024/02/23 04:34:31;;;;;;;12.77;9.27;;;;;;;;;;5028293;28;20100;-50
2024/02/23 04:36:58;;;;;;;15.68;9.65;;;;;;;;;;5026192;28;20083;-48
2024/02/23 04:39:24;;;;;;;11.98;8.82;;;;;;;;;;5029458;28;20029;-48
2024/02/23 04:41:50;;;;;;;12.48;10.00;;;;;;;;;;5031227;28;20435;-51
2024/02/23 04:44:16;;;;;;;13.75;10.13;;;;;;;;;;5031172;28;20601;-47
2024/02/23 04:46:42;;;;;;;13.15;8.98;;;;;;;;;;5017311;28;20018;-48
2024/02/23 04:49:11;;;;;;;13.00;9.55;;;;;;;;;;5011598;28;20282;-48
2024/02/23 04:51:37;;;;;;;16.30;9.38;;;;;;;;;;5011312;28;20032;-49
2024/02/23 04:54:04;;;;;;;13.93;10.10;;;;;;;;;;5010290;28;20030;-47
2024/02/23 04:56:30;;;;;;;20.17;12.03;;;;;;;;;;5017880;28;20443;-47
2024/02/23 04:58:57;;;;;;;18.75;11.35;;;;;;;;;;5024233;28;20041;-49
2024/02/23 05:01:23;;;;;;;19.02;10.32;;;;;;;;;;5010955;28;20030;-49
2024/02/23 05:03:49;;;;;;;13.05;9.65;;;;;;;;;;5008718;28;20042;-49
2024/02/23 05:06:16;;;;;;;12.47;9.47;;;;;;;;;;5009831;28;20041;-49
2024/02/23 05:08:42;;;;;;;12.20;9.48;;;;;;;;;;5010946;28;20069;-48
2024/02/23 05:11:08;;;;;;;15.52;9.18;;;;;;;;;;5014733;28;20515;-49
2024/02/23 05:13:34;;;;;;;22.25;9.85;;;;;;;;;;5014532;28;20069;-49
2024/02/23 05:16:00;;;;;;;12.57;8.70;;;;;;;;;;5014443;28;20075;-53
2024/02/23 05:18:26;;;;;;;17.23;9.98;;;;;;;;;;5014530;28;20512;-51
2024/02/23 05:20:53;;;;;;;15.88;9.13;;;;;;;;;;5014513;28;20058;-49
2024/02/23 05:23:19;;;;;;;12.32;9.68;;;;;;;;;;5014498;28;20030;-50
2024/02/23 05:25:45;;;;;;;13.67;9.13;;;;;;;;;;5014247;28;20034;-49
2024/02/23 05:28:11;;;;;;;14.63;9.27;;;;;;;;;;5013359;28;20420;-50
2024/02/23 05:30:38;;;;;;;10.93;8.50;;;;;;;;;;5012986;28;20029;-51
2024/02/23 05:33:04;;;;;;;12.52;8.27;;;;;;;;;;5014324;28;20396;-50
2024/02/23 05:35:30;;;;;;;13.25;9.40;;;;;;;;;;5013902;28;20029;-51
2024/02/23 05:37:57;;;;;;;15.18;9.75;;;;;;;;;;5012908;28;20041;-50
2024/02/23 05:40:23;;;;;;;13.60;9.20;;;;;;;;;;5012838;28;20026;-48
2024/02/23 05:42:49;;;;;;;17.17;11.60;;;;;;;;;;5014069;28;20041;-51
2024/02/23 05:45:15;;;;;;;14.18;11.27;;;;;;;;;;5013651;28;20049;-50
2024/02/23 05:47:42;;;;;;;13.97;11.00;;;;;;;;;;5014166;28;20113;-50
2024/02/23 05:50:11;;;;;;;16.13;10.95;;;;;;;;;;5013915;28;20261;-52
2024/02/23 05:52:39;;;;;;;16.27;10.48;;;;;;;;;;5013987;28;20056;-52
2024/02/23 05:55:05;;;;;;;14.35;10.30;;;;;;;;;;5013876;28;20042;-49
2024/02/23 05:57:32;;;;;;;17.57;12.70;;;;;;;;;;5013865;28;20030;-49
2024/02/23 05:59:58;;;;;;;15.40;9.87;;;;;;;;;;5013934;28;20029;-52
2024/02/23 06:02:24;;;;;;;11.23;9.65;;;;;;;;;;5013692;28;20274;-51
2024/02/23 06:04:51;;;;;;;15.13;10.90;;;;;;;;;;5013681;28;20025;-49
2024/02/23 06:07:17;;;;;;;16.97;10.70;;;;;;;;;;5013623;28;20033;-52
2024/02/23 06:09:43;;;;;;;16.92;12.73;;;;;;;;;;5013781;28;20504;-50
2024/02/23 06:12:10;;;;;;;16.00;10.65;;;;;;;;;;5012277;28;20034;-49
2024/02/23 06:14:36;;;;;;;18.60;11.82;;;;;;;;;;5013644;28;20030;-52
2024/02/23 06:17:03;;;;;;;14.65;9.52;;;;;;;;;;5012272;28;20101;-50
2024/02/23 06:19:30;;;;;;;15.73;10.07;;;;;;;;;;5013342;28;20448;-51
2024/02/23 06:21:56;;;;;;;15.10;10.37;;;;;;;;;;5012113;28;20030;-49
2024/02/23 06:24:22;;;;;;;15.65;10.02;;;;;;;;;;5013433;28;20036;-49
2024/02/23 06:26:49;;;;;;;14.43;9.27;;;;;;;;;;5013366;28;20136;-49
2024/02/23 06:29:15;;;;;;;15.50;8.70;;;;;;;;;;5012069;28;20512;-50
2024/02/23 06:31:42;;;;;;;16.50;9.32;;;;;;;;;;5011961;28;20112;-48
2024/02/23 06:34:08;;;;;;;18.90;9.98;;;;;;;;;;5013093;28;20030;-50
2024/02/23 06:36:35;;;;;;;13.70;10.55;;;;;;;;;;5013012;28;20017;-50
2024/02/23 06:39:02;;;;;;;13.82;10.85;;;;;;;;;;5013304;28;20457;-49
2024/02/23 06:41:29;;;;;;;14.88;9.50;;;;;;;;;;5013245;28;20033;-52
2024/02/23 06:43:55;;;;;;;16.50;9.77;;;;;;;;;;5013075;28;20030;-51
2024/02/23 06:46:21;;;;;;;14.13;10.40;;;;;;;;;;5012754;28;20030;-53
2024/02/23 06:48:47;;;;;;;15.60;10.73;;;;;;;;;;5012937;28;20480;-52
2024/02/23 06:51:15;;;;;;;15.10;9.85;;;;;;;;;;5011784;28;20435;-51
2024/02/23 06:53:41;;;;;;;19.13;12.13;;;;;;;;;;5012800;28;20037;-49
2024/02/23 06:56:08;;;;;;;18.20;11.70;;;;;;;;;;5012901;28;20033;-51
2024/02/23 06:58:35;;;;;;;22.67;11.75;;;;;;;;;;5011846;28;20115;-49
2024/02/23 07:01:02;;;;;;;17.75;10.05;;;;;;;;;;5012724;28;20057;-50
2024/02/23 07:03:29;;;;;;;18.42;10.07;;;;;;;;;;5012610;28;20104;-49
2024/02/23 07:05:56;;;;;;;;;;;;;;;;;;5012872;28;20037;-51
2024/02/23 07:08:22;;;;;;;15.93;9.63;;;;;;;;;;5012585;28;19912;-52
2024/02/23 07:10:48;;;;;;;15.73;10.23;;;;;;;;;;5011479;28;20396;-51
2024/02/23 07:13:14;;;;;;;14.02;9.90;;;;;;;;;;5011282;28;20053;-50
2024/02/23 07:15:41;;;;;;;14.50;8.47;;;;;;;;;;5011191;28;20042;-49
2024/02/23 07:18:08;;;;;;;12.20;9.35;;;;;;;;;;5012473;28;20033;-50
2024/02/23 07:20:35;;;;;;;17.63;10.15;;;;;;;;;;5012543;28;20038;-48
2024/02/23 07:23:02;;;;;;;12.77;10.02;;;;;;;;;;5012417;28;20053;-49
2024/02/23 07:25:28;;;;;;;17.65;10.38;;;;;;;;;;5012303;28;20088;-51
2024/02/23 07:27:54;;;;;;;15.45;9.45;;;;;;;;;;5012354;28;20029;-49
2024/02/23 07:30:20;;;;;;;18.42;9.90;;;;;;;;;;5011073;28;20030;-48
2024/02/23 07:32:46;;;;;;;18.95;10.52;;;;;;;;;;5010403;28;20030;-50
2024/02/23 07:35:13;;;;;;;12.07;8.47;;;;;;;;;;5012126;28;20037;-49
2024/02/23 07:37:39;;;;;;;18.33;11.30;;;;;;;;;;5011162;28;20049;-48
2024/02/23 07:40:06;;;;;;;17.20;10.77;;;;;;;;;;5010716;28;20552;-49
2024/02/23 07:42:35;;;;;;;16.30;11.48;;;;;;;;;;5011987;28;20260;-50
2024/02/23 07:45:04;;;;;;;16.88;8.98;;;;;;;;;;5010711;28;20066;-49
2024/02/23 07:47:30;;;;;;;17.25;9.13;;;;;;;;;;5012043;28;20022;-49
2024/02/23 07:49:56;;;;;;;13.07;8.50;;;;;;;;;;5011987;28;20033;-49
2024/02/23 07:52:23;;;;;;;13.20;8.38;;;;;;;;;;5011933;28;20026;-50
2024/02/23 07:54:51;;;;;;;20.05;9.43;;;;;;;;;;5011941;28;20022;-52
2024/02/23 07:57:18;;;;;;;17.75;8.65;;;;;;;;;;5011765;28;20076;-49
2024/02/23 07:59:44;;;;;;;16.95;8.60;;;;;;;;;;5011876;28;20041;-49
2024/02/23 08:02:11;;;;;;;15.70;10.37;;;;;;;;;;5011679;28;20034;-48
2024/02/23 08:04:38;;;;;;;12.68;9.93;;;;;;;;;;5012248;28;20389;-49
2024/02/23 08:07:04;;;;;;;;;;;;;;;;;;5012176;28;20612;-50
2024/02/23 08:09:30;;;;;;;19.88;10.25;;;;;;;;;;5011686;28;20438;-49
2024/02/23 08:11:56;;;;;;;15.27;9.00;;;;;;;;;;5011747;28;20072;-49
2024/02/23 08:14:23;;;;;;;45.85;30.33;;;;;;;;;;5011799;28;20546;-49
2024/02/23 08:16:50;;;;;;;26.77;19.05;;;;;;;;;;5011594;28;20038;-51
2024/02/23 08:19:16;;;;;;;38.72;18.27;;;;;;;;;;5011758;28;20497;-48
2024/02/23 08:21:43;;;;;;;12.17;8.80;;;;;;;;;;5010479;28;20040;-51
2024/02/23 08:24:09;;;;;;;17.17;11.63;;;;;;;;;;5011513;28;20276;-52
2024/02/23 08:26:38;;;;;;;19.33;9.75;;;;;;;;;;5011476;28;20116;-49
2024/02/23 08:29:05;;;;;;;17.10;11.43;;;;;;;;;;5011554;28;20485;-48
2024/02/23 08:31:31;;;;;;;17.73;10.02;;;;;;;;;;5011433;28;20026;-50
2024/02/23 08:33:57;;;;;;;15.57;8.45;;;;;;;;;;5011543;28;20404;-49
2024/02/23 08:36:23;;;;;;;10.65;8.50;;;;;;;;;;5010266;28;20485;-48
2024/02/23 08:38:50;;;;;;;11.87;7.80;;;;;;;;;;5011644;28;20084;-48
2024/02/23 08:41:16;;;;;;;13.95;11.10;;;;;;;;;;5010242;28;20040;-53
2024/02/23 08:43:42;;;;;;;16.48;11.73;;;;;;;;;;5012563;28;20105;-49
2024/02/23 08:46:08;;;;;;;13.52;8.93;;;;;;;;;;5015055;28;20467;-49
2024/02/23 08:48:34;;;;;;;12.70;8.43;;;;;;;;;;5015272;28;20469;-52
2024/02/23 08:51:01;;;;;;;12.27;8.20;;;;;;;;;;5015219;28;20036;-49
2024/02/23 08:53:27;;;;;;;15.95;8.65;;;;;;;;;;5015131;28;20029;-52
2024/02/23 08:55:53;;;;;;;13.77;8.47;;;;;;;;;;5013588;28;20108;-49
2024/02/23 08:58:19;;;;;;;10.30;8.13;;;;;;;;;;5015074;28;20075;-49
2024/02/23 09:00:45;;;;;;;12.02;7.28;;;;;;;;;;5015027;28;20041;-52
2024/02/23 09:03:12;;;;;;;13.35;8.13;;;;;;;;;;5015074;28;20405;-51
2024/02/23 09:05:38;;;;;;;12.45;7.90;;;;;;;;;;5014725;28;20511;-50
2024/02/23 09:08:05;;;;;;;9.82;7.70;;;;;;;;;;5013554;28;20426;-49
2024/02/23 09:10:31;;;;;;;15.35;10.23;;;;;;;;;;5014664;28;20100;-52
2024/02/23 09:12:57;;;;;;;19.70;11.02;;;;;;;;;;5014908;28;20704;-49
2024/02/23 09:15:24;;;;;;;12.93;9.47;;;;;;;;;;5014494;28;20025;-49
2024/02/23 09:17:50;;;;;;;17.58;11.52;;;;;;;;;;5014567;28;20427;-51
2024/02/23 09:20:17;;;;;;;18.90;11.55;;;;;;;;;;5014665;28;20036;-49
2024/02/23 09:22:43;;;;;;;16.17;11.00;;;;;;;;;;5014563;28;20028;-49
2024/02/23 09:25:10;;;;;;;18.42;11.88;;;;;;;;;;5013811;28;20088;-49
2024/02/23 09:27:40;;;;;;;13.07;10.70;;;;;;;;;;5014428;28;20069;-49
2024/02/23 09:30:06;;;;;;;14.93;10.75;;;;;;;;;;5014361;28;20461;-49
2024/02/23 09:32:32;;;;;;;15.93;11.38;;;;;;;;;;5014390;28;20112;-49
2024/02/23 09:34:59;;;;;;;18.52;11.88;;;;;;;;;;5014502;28;20034;-49
2024/02/23 09:37:25;;;;;;;10.40;8.52;;;;;;;;;;5012826;28;20034;-49
2024/02/23 09:39:51;;;;;;;14.30;11.13;;;;;;;;;;5013832;28;20032;-48
2024/02/23 09:42:18;;;;;;;15.15;10.05;;;;;;;;;;5012578;28;20443;-49
2024/02/23 09:44:46;;;;;;;13.32;11.32;;;;;;;;;;5012780;28;20030;-49
2024/02/23 09:47:13;;;;;;;14.60;10.52;;;;;;;;;;5014032;28;20026;-48
2024/02/23 09:49:40;;;;;;;15.45;11.65;;;;;;;;;;5013986;28;20058;-49
2024/02/23 09:52:09;;;;;;;12.98;10.77;;;;;;;;;;5013926;28;20564;-49
2024/02/23 09:54:38;;;;;;;14.95;11.00;;;;;;;;;;5012350;28;20034;-49
2024/02/23 09:57:07;;;;;;;14.15;11.43;;;;;;;;;;5012562;28;20152;-50
2024/02/23 09:59:34;;;;;;;13.55;10.02;;;;;;;;;;5014018;28;20033;-49
2024/02/23 10:02:00;;;;;;;12.75;8.55;;;;;;;;;;5013718;28;20033;-49
2024/02/23 10:04:31;;;;;;;9.67;8.33;;;;;;;;;;5013741;28;20030;-50
2024/02/23 10:06:57;;;;;;;9.93;8.63;;;;;;;;;;5012414;28;20412;-49
2024/02/23 10:09:23;;;;;;;14.57;9.63;;;;;;;;;;5012804;28;20425;-49
2024/02/23 10:11:56;;;;;;;10.10;8.00;;;;;;;;;;5011475;28;20066;-50
2024/02/23 10:14:22;;;;;;;9.52;8.35;;;;;;;;;;5013575;28;20026;-49
2024/02/23 10:16:53;;;;;;;10.13;9.07;;;;;;;;;;5013475;28;20026;-51
2024/02/23 10:19:20;;;;;;;10.88;9.55;;;;;;;;;;5013438;28;20407;-49
2024/02/23 10:21:47;;;;;;;11.10;9.68;;;;;;;;;;5013379;28;20038;-49
2024/02/23 10:24:13;;;;;;;12.38;10.70;;;;;;;;;;5013275;28;20058;-49
2024/02/23 10:26:39;;;;;;;12.20;10.40;;;;;;;;;;5011721;28;20026;-49
2024/02/23 10:29:05;;;;;;;12.43;11.13;;;;;;;;;;5013259;28;20030;-48
2024/02/23 10:31:36;;;;;;;11.63;10.30;;;;;;;;;;5011917;28;20096;-48
2024/02/23 10:34:07;;;;;;;11.75;9.75;;;;;;;;;;5011875;28;20592;-48
2024/02/23 10:36:34;;;;;;;11.00;9.88;;;;;;;;;;5012941;28;20034;-49
2024/02/23 10:39:04;;;;;;;10.43;8.77;;;;;;;;;;5012088;28;20045;-49
2024/02/23 10:41:34;;;;;;;10.25;9.00;;;;;;;;;;4995559;28;20029;-49
2024/02/23 10:44:03;;;;;;;11.02;9.68;;;;;;;;;;5012919;28;20026;-48
2024/02/23 10:46:31;;;;;;;11.70;10.27;;;;;;;;;;5012686;28;20075;-48
2024/02/23 10:48:59;;;;;;;13.57;9.43;;;;;;;;;;5012834;28;20030;-48
2024/02/23 10:51:25;;;;;;;10.70;9.30;;;;;;;;;;5012773;28;20022;-49
2024/02/23 10:53:53;;;;;;;11.07;9.25;;;;;;;;;;5012843;28;20559;-48
2024/02/23 10:56:19;;;;;;;13.48;10.15;;;;;;;;;;5011575;28;20034;-48
2024/02/23 10:58:46;;;;;;;10.02;8.57;;;;;;;;;;5012698;28;20089;-48
2024/02/23 11:01:13;;;;;;;10.85;9.10;;;;;;;;;;5011420;28;20091;-51
2024/02/23 11:03:42;;;;;;;11.13;9.98;;;;;;;;;;5012518;28;20037;-48
2024/02/23 11:06:08;;;;;;;8.27;6.80;;;;;;;;;;5011601;28;20131;-48
2024/02/23 11:08:38;;;;;;;9.13;8.00;;;;;;;;;;5011336;28;20121;-48
2024/02/23 11:11:08;;;;;;;7.85;6.80;;;;;;;;;;5011374;28;20026;-49
2024/02/23 11:13:39;;;;;;;8.95;6.18;;;;;;;;;;5013229;28;20045;-49
2024/02/23 11:16:06;;;;;;;7.90;6.63;;;;;;;;;;5017314;28;20502;-49
2024/02/23 11:18:32;;;;;;;8.02;7.13;;;;;;;;;;5008578;28;20496;-50
2024/02/23 11:21:04;;;;;;;8.57;7.68;;;;;;;;;;5011933;28;20034;-49
2024/02/23 11:23:42;;;;;;;9.93;7.70;;;;;;;;;;5010213;28;20030;-52
2024/02/23 11:26:12;;;;;;;9.98;7.97;;;;;;;;;;5008014;28;20096;-52
2024/02/23 11:28:58;;;;;;;10.02;8.30;;;;;;;;;;5011757;28;20053;-53
2024/02/23 11:31:25;;;;;;;12.30;8.55;;;;;;;;;;5008670;28;20029;-49
2024/02/23 11:33:51;;;;;;;9.75;8.75;;;;;;;;;;5012322;28;20080;-53
2024/02/23 11:36:24;;;;;;;9.98;8.05;;;;;;;;;;5018062;28;20037;-52
2024/02/23 11:38:55;;;;;;;10.95;9.52;;;;;;;;;;5020801;28;20041;-49
2024/02/23 11:41:23;;;;;;;9.88;8.48;;;;;;;;;;5010137;28;20053;-49
2024/02/23 11:43:50;;;;;;;14.77;9.65;;;;;;;;;;5019743;28;20036;-50
2024/02/23 11:46:16;;;;;;;11.02;9.93;;;;;;;;;;5020064;28;20034;-49
2024/02/23 11:48:43;;;;;;;9.50;8.35;;;;;;;;;;5021891;28;20037;-52
2024/02/23 11:51:10;;;;;;;10.63;8.45;;;;;;;;;;5010215;28;20042;-49
2024/02/23 11:53:39;;;;;;;11.05;8.18;;;;;;;;;;5025290;28;20041;-53
2024/02/23 11:56:06;;;;;;;11.38;9.10;;;;;;;;;;5029794;28;20052;-51
2024/02/23 11:58:33;;;;;;;10.90;9.60;;;;;;;;;;5024977;28;20029;-49
2024/02/23 12:01:02;;;;;;;9.70;8.27;;;;;;;;;;5015961;28;20029;-51
2024/02/23 12:03:30;;;;;;;9.80;8.00;;;;;;;;;;5012805;28;20038;-51
2024/02/23 12:06:00;;;;;;;10.82;8.52;;;;;;;;;;5013954;28;20403;-50
2024/02/23 12:08:32;;;;;;;11.38;9.48;;;;;;;;;;5014631;28;20030;-49
2024/02/23 12:11:02;;;;;;;11.85;9.63;;;;;;;;;;5010250;28;20488;-49
2024/02/23 12:13:28;;;;;;;13.35;10.25;;;;;;;;;;5009102;28;20030;-50
2024/02/23 12:15:55;;;;;;;18.42;13.90;;;;;;;;;;5023998;28;20029;-49
2024/02/23 12:18:29;;;;;;;14.20;12.68;;;;;;;;;;5025866;28;20124;-51
2024/02/23 12:21:02;;;;;;;18.60;14.90;;;;;;;;;;5024323;28;20042;-49
2024/02/23 12:23:38;;;;;;;14.48;12.43;;;;;;;;;;4996400;28;20484;-53
2024/02/23 12:26:04;;;;;;;15.80;12.93;;;;;;;;;;5013838;28;20044;-52
2024/02/23 12:28:31;;;;;;;17.67;14.23;;;;;;;;;;5018286;28;20054;-50
2024/02/23 12:31:04;;;;;;;16.23;13.83;;;;;;;;;;5018917;28;20034;-50
2024/02/23 12:33:34;;;;;;;16.65;13.93;;;;;;;;;;5013850;28;20026;-50
2024/02/23 12:36:01;;;;;;;16.75;14.57;;;;;;;;;;5014798;28;20029;-49
2024/02/23 12:38:28;;;;;;;18.52;14.25;;;;;;;;;;5011925;28;20034;-50
2024/02/23 12:40:54;;;;;;;81.57;66.75;;;;;;;;;;5013705;28;20041;-49
2024/02/23 12:43:26;;;;;;;34.43;28.63;;;;;;;;;;5013737;28;20033;-49
2024/02/23 12:45:54;;;;;;;18.80;15.90;;;;;;;;;;5022093;28;20045;-50
2024/02/23 12:48:20;;;;;;;15.88;14.05;;;;;;;;;;5013700;28;20022;-50
2024/02/23 12:50:47;;;;;;;16.85;13.77;;;;;;;;;;5012322;28;20034;-54
2024/02/23 12:53:32;;;;;;;14.63;13.13;;;;;;;;;;5012194;28;20439;-50
2024/02/23 12:55:58;;;;;;;15.75;14.15;;;;;;;;;;5029452;28;20048;-50
2024/02/23 12:58:25;;;;;;;17.73;14.87;;;;;;;;;;5033244;28;20070;-50
2024/02/23 13:00:51;;;;;;;16.35;14.18;;;;;;;;;;4999623;28;20037;-50
2024/02/23 13:03:17;;;;;;;16.52;14.38;;;;;;;;;;5013227;28;20104;-50
2024/02/23 13:05:43;;;;;;;19.02;15.73;;;;;;;;;;5026821;28;20033;-50
2024/02/23 13:08:09;;;;;;;16.23;13.10;;;;;;;;;;5015347;28;20071;-51
2024/02/23 13:10:35;;;;;;;43.83;32.42;;;;;;;;;;5031860;28;20516;-50
2024/02/23 13:13:02;;;;;;;31.73;25.00;;;;;;;;;;5013076;28;20053;-50
2024/02/23 13:15:28;;;;;;;14.93;12.60;;;;;;;;;;5021243;28;20072;-53
2024/02/23 13:17:57;;;;;;;16.20;14.00;;;;;;;;;;5013180;28;20091;-52
2024/02/23 13:20:23;;;;;;;14.05;12.55;;;;;;;;;;5011809;28;20041;-50
2024/02/23 13:22:50;;;;;;;15.33;12.93;;;;;;;;;;5013129;28;20091;-53
2024/02/23 13:25:16;;;;;;;;;;;;;;;;;;5020755;28;20448;-52
2024/02/23 13:27:42;;;;;;;11.60;10.32;;;;;;;;;;5032899;28;19920;-52
2024/02/23 13:30:09;;;;;;;12.15;10.95;;;;;;;;;;5025235;28;20061;-53
2024/02/23 13:32:35;;;;;;;13.88;10.77;;;;;;;;;;5031073;28;20100;-50
2024/02/23 13:35:04;;;;;;;11.55;10.35;;;;;;;;;;5026511;28;20030;-50
2024/02/23 13:37:30;;;;;;;13.50;10.38;;;;;;;;;;5012688;28;20038;-49
2024/02/23 13:39:57;;;;;;;10.95;9.50;;;;;;;;;;5011948;28;20151;-50
2024/02/23 13:42:23;;;;;;;10.27;9.27;;;;;;;;;;5012554;28;20057;-50
2024/02/23 13:44:49;;;;;;;10.02;9.02;;;;;;;;;;5016427;28;20034;-52
2024/02/23 13:47:16;;;;;;;10.03;8.93;;;;;;;;;;5025088;28;20112;-49
2024/02/23 13:49:42;;;;;;;14.57;10.13;;;;;;;;;;5032161;28;20053;-49
2024/02/23 13:52:08;;;;;;;10.18;9.00;;;;;;;;;;5032086;28;20021;-49
2024/02/23 13:54:34;;;;;;;10.55;9.50;;;;;;;;;;5012995;28;20033;-52
2024/02/23 13:57:01;;;;;;;12.27;10.40;;;;;;;;;;5012055;28;20110;-49
2024/02/23 13:59:27;;;;;;;12.60;11.30;;;;;;;;;;5012518;28;20022;-50
2024/02/23 14:01:53;;;;;;;11.82;10.60;;;;;;;;;;5021029;28;20040;-51
2024/02/23 14:04:19;;;;;;;11.45;9.43;;;;;;;;;;5017201;28;20543;-53
2024/02/23 14:06:45;;;;;;;10.60;9.50;;;;;;;;;;5012424;28;20030;-49
2024/02/23 14:09:12;;;;;;;12.18;10.93;;;;;;;;;;5030548;28;20509;-50
2024/02/23 14:11:39;;;;;;;11.10;10.00;;;;;;;;;;5031810;28;20021;-50
2024/02/23 14:14:07;;;;;;;11.35;10.15;;;;;;;;;;5031715;28;20562;-49
2024/02/23 14:16:34;;;;;;;10.20;9.15;;;;;;;;;;5031584;28;20125;-50
2024/02/23 14:19:00;;;;;;;11.60;10.38;;;;;;;;;;5008501;28;20021;-50
2024/02/23 14:21:26;;;;;;;11.65;10.13;;;;;;;;;;5024473;28;20092;-49
2024/02/23 14:23:53;;;;;;;10.90;9.80;;;;;;;;;;5012422;28;20037;-50